sensor_id;sensor_type;location;lat;lon;timestamp;P1;durP1;ratioP1;P2;durP2;ratioP2
73567;SDS011;61847;54.994;73.310;2022-12-17T00:00:34;99.27;;;24.33;;
73567;SDS011;61847;54.994;73.310;2022-12-17T00:03:18;96.00;;;25.00;;
73567;SDS011;61847;54.994;73.310;2022-12-17T00:06:03;108.72;;;25.95;;
73567;SDS011;61847;54.994;73.310;2022-12-17T00:08:48;94.60;;;24.87;;
73567;SDS011;61847;54.994;73.310;2022-12-17T00:11:42;93.93;;;24.57;;
73567;SDS011;61847;54.994;73.310;2022-12-17T00:14:30;83.63;;;21.83;;
73567;SDS011;61847;54.994;73.310;2022-12-17T00:17:15;95.23;;;24.93;;
73567;SDS011;61847;54.994;73.310;2022-12-17T00:19:59;86.80;;;22.43;;
73567;SDS011;61847;54.994;73.310;2022-12-17T00:22:56;99.23;;;23.93;;
73567;SDS011;61847;54.994;73.310;2022-12-17T00:25:55;95.47;;;23.15;;
73567;SDS011;61847;54.994;73.310;2022-12-17T00:28:51;107.97;;;24.30;;
73567;SDS011;61847;54.994;73.310;2022-12-17T00:31:35;80.95;;;21.63;;
73567;SDS011;61847;54.994;73.310;2022-12-17T00:34:31;87.82;;;21.77;;
73567;SDS011;61847;54.994;73.310;2022-12-17T00:37:15;93.70;;;24.13;;
73567;SDS011;61847;54.994;73.310;2022-12-17T00:40:00;94.45;;;24.95;;
73567;SDS011;61847;54.994;73.310;2022-12-17T00:42:44;93.53;;;24.47;;
73567;SDS011;61847;54.994;73.310;2022-12-17T00:45:29;94.13;;;24.17;;
73567;SDS011;61847;54.994;73.310;2022-12-17T00:48:13;97.30;;;24.75;;
73567;SDS011;61847;54.994;73.310;2022-12-17T00:51:09;89.20;;;21.87;;
73567;SDS011;61847;54.994;73.310;2022-12-17T00:53:53;100.13;;;23.13;;
73567;SDS011;61847;54.994;73.310;2022-12-17T00:56:43;93.27;;;23.00;;
73567;SDS011;61847;54.994;73.310;2022-12-17T00:59:38;112.70;;;24.50;;
73567;SDS011;61847;54.994;73.310;2022-12-17T01:02:24;107.50;;;28.23;;
73567;SDS011;61847;54.994;73.310;2022-12-17T01:05:18;111.22;;;25.70;;
73567;SDS011;61847;54.994;73.310;2022-12-17T01:08:09;103.20;;;26.52;;
73567;SDS011;61847;54.994;73.310;2022-12-17T01:10:59;126.35;;;29.88;;
73567;SDS011;61847;54.994;73.310;2022-12-17T01:13:50;110.40;;;29.43;;
73567;SDS011;61847;54.994;73.310;2022-12-17T01:16:36;116.37;;;28.63;;
73567;SDS011;61847;54.994;73.310;2022-12-17T01:19:31;181.25;;;46.75;;
73567;SDS011;61847;54.994;73.310;2022-12-17T01:22:16;153.32;;;38.70;;
73567;SDS011;61847;54.994;73.310;2022-12-17T01:25:05;144.97;;;34.90;;
73567;SDS011;61847;54.994;73.310;2022-12-17T01:27:50;137.03;;;33.23;;
73567;SDS011;61847;54.994;73.310;2022-12-17T01:30:36;149.73;;;35.20;;
73567;SDS011;61847;54.994;73.310;2022-12-17T01:33:21;127.87;;;32.17;;
73567;SDS011;61847;54.994;73.310;2022-12-17T01:36:05;128.53;;;31.10;;
73567;SDS011;61847;54.994;73.310;2022-12-17T01:38:50;139.23;;;35.72;;
73567;SDS011;61847;54.994;73.310;2022-12-17T01:41:37;134.00;;;33.00;;
73567;SDS011;61847;54.994;73.310;2022-12-17T01:47:33;159.23;;;38.67;;
73567;SDS011;61847;54.994;73.310;2022-12-17T01:50:29;229.97;;;57.67;;
73567;SDS011;61847;54.994;73.310;2022-12-17T01:53:26;224.70;;;57.07;;
73567;SDS011;61847;54.994;73.310;2022-12-17T01:56:14;225.07;;;57.33;;
73567;SDS011;61847;54.994;73.310;2022-12-17T01:59:00;226.60;;;61.23;;
73567;SDS011;61847;54.994;73.310;2022-12-17T02:01:46;248.30;;;63.17;;
73567;SDS011;61847;54.994;73.310;2022-12-17T02:04:30;253.70;;;66.80;;
73567;SDS011;61847;54.994;73.310;2022-12-17T02:07:36;249.67;;;69.03;;
73567;SDS011;61847;54.994;73.310;2022-12-17T02:10:25;241.07;;;69.13;;
73567;SDS011;61847;54.994;73.310;2022-12-17T02:19:25;199.30;;;56.33;;
73567;SDS011;61847;54.994;73.310;2022-12-17T02:25:52;155.97;;;38.73;;
73567;SDS011;61847;54.994;73.310;2022-12-17T02:28:53;137.83;;;40.77;;
73567;SDS011;61847;54.994;73.310;2022-12-17T02:31:40;139.87;;;38.93;;
73567;SDS011;61847;54.994;73.310;2022-12-17T02:34:28;143.20;;;39.67;;
73567;SDS011;61847;54.994;73.310;2022-12-17T02:37:17;249.87;;;62.57;;
73567;SDS011;61847;54.994;73.310;2022-12-17T02:40:12;246.07;;;57.23;;
73567;SDS011;61847;54.994;73.310;2022-12-17T02:42:57;267.80;;;62.13;;
73567;SDS011;61847;54.994;73.310;2022-12-17T02:45:45;225.47;;;56.10;;
73567;SDS011;61847;54.994;73.310;2022-12-17T02:48:30;184.80;;;45.73;;
73567;SDS011;61847;54.994;73.310;2022-12-17T02:51:15;174.50;;;44.30;;
73567;SDS011;61847;54.994;73.310;2022-12-17T02:54:02;202.93;;;49.60;;
73567;SDS011;61847;54.994;73.310;2022-12-17T02:56:47;224.10;;;50.10;;
73567;SDS011;61847;54.994;73.310;2022-12-17T02:59:42;323.77;;;75.97;;
73567;SDS011;61847;54.994;73.310;2022-12-17T03:02:26;329.20;;;79.23;;
73567;SDS011;61847;54.994;73.310;2022-12-17T03:05:11;286.30;;;67.77;;
73567;SDS011;61847;54.994;73.310;2022-12-17T03:08:06;163.07;;;39.83;;
73567;SDS011;61847;54.994;73.310;2022-12-17T03:11:01;170.77;;;40.87;;
73567;SDS011;61847;54.994;73.310;2022-12-17T03:13:45;154.73;;;42.30;;
73567;SDS011;61847;54.994;73.310;2022-12-17T03:16:30;112.83;;;29.50;;
73567;SDS011;61847;54.994;73.310;2022-12-17T03:19:25;123.53;;;32.57;;
73567;SDS011;61847;54.994;73.310;2022-12-17T03:22:09;115.43;;;30.40;;
73567;SDS011;61847;54.994;73.310;2022-12-17T03:24:59;123.23;;;31.77;;
73567;SDS011;61847;54.994;73.310;2022-12-17T03:27:49;119.03;;;29.47;;
73567;SDS011;61847;54.994;73.310;2022-12-17T03:30:34;110.90;;;26.27;;
73567;SDS011;61847;54.994;73.310;2022-12-17T03:33:28;131.57;;;33.17;;
73567;SDS011;61847;54.994;73.310;2022-12-17T03:36:18;129.10;;;33.73;;
73567;SDS011;61847;54.994;73.310;2022-12-17T03:39:02;131.43;;;30.70;;
73567;SDS011;61847;54.994;73.310;2022-12-17T03:41:47;142.20;;;29.50;;
73567;SDS011;61847;54.994;73.310;2022-12-17T03:44:36;118.03;;;28.73;;
73567;SDS011;61847;54.994;73.310;2022-12-17T03:47:21;120.70;;;29.73;;
73567;SDS011;61847;54.994;73.310;2022-12-17T03:50:16;119.50;;;29.83;;
73567;SDS011;61847;54.994;73.310;2022-12-17T03:53:05;124.93;;;29.63;;
73567;SDS011;61847;54.994;73.310;2022-12-17T03:55:50;114.57;;;28.13;;
73567;SDS011;61847;54.994;73.310;2022-12-17T03:58:34;120.73;;;29.30;;
73567;SDS011;61847;54.994;73.310;2022-12-17T04:01:24;115.47;;;28.30;;
73567;SDS011;61847;54.994;73.310;2022-12-17T04:04:08;124.40;;;29.23;;
73567;SDS011;61847;54.994;73.310;2022-12-17T04:06:53;116.73;;;27.87;;
73567;SDS011;61847;54.994;73.310;2022-12-17T04:09:38;116.90;;;28.10;;
73567;SDS011;61847;54.994;73.310;2022-12-17T04:12:28;108.28;;;27.45;;
73567;SDS011;61847;54.994;73.310;2022-12-17T04:15:12;135.43;;;31.97;;
73567;SDS011;61847;54.994;73.310;2022-12-17T04:18:13;117.60;;;32.13;;
73567;SDS011;61847;54.994;73.310;2022-12-17T04:20:58;121.23;;;28.33;;
73567;SDS011;61847;54.994;73.310;2022-12-17T04:23:42;103.03;;;28.10;;
73567;SDS011;61847;54.994;73.310;2022-12-17T04:26:32;123.83;;;31.10;;
73567;SDS011;61847;54.994;73.310;2022-12-17T04:29:17;133.52;;;33.47;;
73567;SDS011;61847;54.994;73.310;2022-12-17T04:32:13;168.57;;;38.33;;
73567;SDS011;61847;54.994;73.310;2022-12-17T04:35:08;153.90;;;39.10;;
73567;SDS011;61847;54.994;73.310;2022-12-17T04:38:02;165.93;;;40.83;;
73567;SDS011;61847;54.994;73.310;2022-12-17T04:40:47;182.97;;;47.70;;
73567;SDS011;61847;54.994;73.310;2022-12-17T04:43:33;172.63;;;44.17;;
73567;SDS011;61847;54.994;73.310;2022-12-17T04:46:23;168.97;;;41.23;;
73567;SDS011;61847;54.994;73.310;2022-12-17T04:49:08;149.27;;;40.90;;
73567;SDS011;61847;54.994;73.310;2022-12-17T04:51:52;204.60;;;51.57;;
73567;SDS011;61847;54.994;73.310;2022-12-17T04:54:37;211.70;;;53.40;;
73567;SDS011;61847;54.994;73.310;2022-12-17T04:57:21;230.25;;;61.70;;
73567;SDS011;61847;54.994;73.310;2022-12-17T05:00:06;269.03;;;80.77;;
73567;SDS011;61847;54.994;73.310;2022-12-17T05:02:52;303.40;;;86.60;;
73567;SDS011;61847;54.994;73.310;2022-12-17T05:05:36;268.70;;;70.37;;
73567;SDS011;61847;54.994;73.310;2022-12-17T05:08:21;280.33;;;76.30;;
73567;SDS011;61847;54.994;73.310;2022-12-17T05:11:19;260.07;;;74.17;;
73567;SDS011;61847;54.994;73.310;2022-12-17T05:14:08;258.58;;;74.20;;
73567;SDS011;61847;54.994;73.310;2022-12-17T05:16:53;291.57;;;82.40;;
73567;SDS011;61847;54.994;73.310;2022-12-17T05:19:38;276.40;;;78.33;;
73567;SDS011;61847;54.994;73.310;2022-12-17T05:22:29;272.97;;;80.73;;
73567;SDS011;61847;54.994;73.310;2022-12-17T05:25:23;269.30;;;77.87;;
73567;SDS011;61847;54.994;73.310;2022-12-17T05:28:12;270.40;;;81.80;;
73567;SDS011;61847;54.994;73.310;2022-12-17T05:31:17;266.50;;;79.47;;
73567;SDS011;61847;54.994;73.310;2022-12-17T05:34:07;284.93;;;81.77;;
73567;SDS011;61847;54.994;73.310;2022-12-17T05:36:52;296.47;;;85.13;;
73567;SDS011;61847;54.994;73.310;2022-12-17T05:39:37;270.23;;;76.13;;
73567;SDS011;61847;54.994;73.310;2022-12-17T05:42:21;282.23;;;82.93;;
73567;SDS011;61847;54.994;73.310;2022-12-17T05:45:12;295.67;;;84.77;;
73567;SDS011;61847;54.994;73.310;2022-12-17T05:47:57;323.97;;;94.60;;
73567;SDS011;61847;54.994;73.310;2022-12-17T05:50:42;274.90;;;79.97;;
73567;SDS011;61847;54.994;73.310;2022-12-17T05:53:29;267.37;;;81.00;;
73567;SDS011;61847;54.994;73.310;2022-12-17T05:56:13;277.43;;;82.00;;
73567;SDS011;61847;54.994;73.310;2022-12-17T05:58:58;287.13;;;87.57;;
73567;SDS011;61847;54.994;73.310;2022-12-17T06:01:43;283.50;;;86.73;;
73567;SDS011;61847;54.994;73.310;2022-12-17T06:04:27;319.87;;;92.03;;
73567;SDS011;61847;54.994;73.310;2022-12-17T06:07:12;340.07;;;100.30;;
73567;SDS011;61847;54.994;73.310;2022-12-17T06:09:57;367.00;;;102.53;;
73567;SDS011;61847;54.994;73.310;2022-12-17T06:12:41;370.03;;;98.53;;
73567;SDS011;61847;54.994;73.310;2022-12-17T06:15:32;331.37;;;87.93;;
73567;SDS011;61847;54.994;73.310;2022-12-17T06:18:16;332.03;;;91.73;;
73567;SDS011;61847;54.994;73.310;2022-12-17T06:21:01;238.20;;;65.07;;
73567;SDS011;61847;54.994;73.310;2022-12-17T06:23:45;213.97;;;55.70;;
73567;SDS011;61847;54.994;73.310;2022-12-17T06:26:35;176.77;;;40.27;;
73567;SDS011;61847;54.994;73.310;2022-12-17T06:29:20;131.70;;;37.03;;
73567;SDS011;61847;54.994;73.310;2022-12-17T06:32:04;147.57;;;33.47;;
73567;SDS011;61847;54.994;73.310;2022-12-17T06:34:49;94.30;;;27.03;;
73567;SDS011;61847;54.994;73.310;2022-12-17T06:37:33;112.60;;;28.77;;
73567;SDS011;61847;54.994;73.310;2022-12-17T06:40:18;122.03;;;30.80;;
73567;SDS011;61847;54.994;73.310;2022-12-17T06:43:12;93.20;;;26.37;;
73567;SDS011;61847;54.994;73.310;2022-12-17T06:45:59;118.20;;;28.17;;
73567;SDS011;61847;54.994;73.310;2022-12-17T06:48:44;104.17;;;27.17;;
73567;SDS011;61847;54.994;73.310;2022-12-17T06:51:30;93.00;;;24.37;;
73567;SDS011;61847;54.994;73.310;2022-12-17T06:54:14;93.67;;;24.57;;
73567;SDS011;61847;54.994;73.310;2022-12-17T06:56:59;98.00;;;27.20;;
73567;SDS011;61847;54.994;73.310;2022-12-17T06:59:46;90.07;;;23.07;;
73567;SDS011;61847;54.994;73.310;2022-12-17T07:02:31;87.03;;;21.70;;
73567;SDS011;61847;54.994;73.310;2022-12-17T07:05:15;95.57;;;24.93;;
73567;SDS011;61847;54.994;73.310;2022-12-17T07:08:10;93.40;;;22.07;;
73567;SDS011;61847;54.994;73.310;2022-12-17T07:10:59;101.80;;;27.60;;
73567;SDS011;61847;54.994;73.310;2022-12-17T07:13:44;73.63;;;19.50;;
73567;SDS011;61847;54.994;73.310;2022-12-17T07:16:29;110.93;;;30.00;;
73567;SDS011;61847;54.994;73.310;2022-12-17T07:19:14;96.20;;;24.87;;
73567;SDS011;61847;54.994;73.310;2022-12-17T07:21:59;121.33;;;33.30;;
73567;SDS011;61847;54.994;73.310;2022-12-17T07:24:43;122.77;;;30.03;;
73567;SDS011;61847;54.994;73.310;2022-12-17T07:27:38;83.60;;;23.13;;
73567;SDS011;61847;54.994;73.310;2022-12-17T07:30:43;74.10;;;20.33;;
73567;SDS011;61847;54.994;73.310;2022-12-17T07:33:28;69.90;;;17.97;;
73567;SDS011;61847;54.994;73.310;2022-12-17T07:36:12;78.73;;;20.90;;
73567;SDS011;61847;54.994;73.310;2022-12-17T07:38:57;77.87;;;18.53;;
73567;SDS011;61847;54.994;73.310;2022-12-17T07:41:41;75.17;;;20.47;;
73567;SDS011;61847;54.994;73.310;2022-12-17T07:44:26;79.63;;;19.00;;
73567;SDS011;61847;54.994;73.310;2022-12-17T07:47:20;84.73;;;20.53;;
73567;SDS011;61847;54.994;73.310;2022-12-17T07:50:05;83.27;;;19.17;;
73567;SDS011;61847;54.994;73.310;2022-12-17T07:53:08;87.10;;;18.53;;
73567;SDS011;61847;54.994;73.310;2022-12-17T07:55:52;72.70;;;19.10;;
73567;SDS011;61847;54.994;73.310;2022-12-17T07:58:47;72.80;;;19.83;;
73567;SDS011;61847;54.994;73.310;2022-12-17T08:01:32;59.97;;;12.70;;
73567;SDS011;61847;54.994;73.310;2022-12-17T08:04:17;67.80;;;16.70;;
73567;SDS011;61847;54.994;73.310;2022-12-17T08:07:04;67.20;;;19.40;;
73567;SDS011;61847;54.994;73.310;2022-12-17T08:09:49;62.33;;;17.10;;
73567;SDS011;61847;54.994;73.310;2022-12-17T08:12:38;63.50;;;19.20;;
73567;SDS011;61847;54.994;73.310;2022-12-17T08:15:33;52.97;;;14.40;;
73567;SDS011;61847;54.994;73.310;2022-12-17T08:18:17;39.97;;;9.87;;
73567;SDS011;61847;54.994;73.310;2022-12-17T08:21:01;41.73;;;10.97;;
73567;SDS011;61847;54.994;73.310;2022-12-17T08:23:52;25.87;;;8.57;;
73567;SDS011;61847;54.994;73.310;2022-12-17T08:26:41;49.67;;;10.10;;
73567;SDS011;61847;54.994;73.310;2022-12-17T08:29:36;16.03;;;6.67;;
73567;SDS011;61847;54.994;73.310;2022-12-17T08:32:21;30.57;;;8.70;;
73567;SDS011;61847;54.994;73.310;2022-12-17T08:35:06;50.90;;;10.87;;
73567;SDS011;61847;54.994;73.310;2022-12-17T08:38:03;41.53;;;7.10;;
73567;SDS011;61847;54.994;73.310;2022-12-17T08:40:59;31.52;;;9.00;;
73567;SDS011;61847;54.994;73.310;2022-12-17T08:43:54;27.23;;;8.17;;
73567;SDS011;61847;54.994;73.310;2022-12-17T08:46:48;23.37;;;6.13;;
73567;SDS011;61847;54.994;73.310;2022-12-17T08:49:33;13.17;;;3.53;;
73567;SDS011;61847;54.994;73.310;2022-12-17T08:52:17;20.67;;;6.10;;
73567;SDS011;61847;54.994;73.310;2022-12-17T08:55:02;40.57;;;10.40;;
73567;SDS011;61847;54.994;73.310;2022-12-17T08:57:57;40.57;;;9.30;;
73567;SDS011;61847;54.994;73.310;2022-12-17T09:00:47;20.67;;;4.47;;
73567;SDS011;61847;54.994;73.310;2022-12-17T09:03:31;24.53;;;7.27;;
73567;SDS011;61847;54.994;73.310;2022-12-17T09:06:16;16.13;;;3.97;;
73567;SDS011;61847;54.994;73.310;2022-12-17T09:09:01;38.57;;;8.27;;
73567;SDS011;61847;54.994;73.310;2022-12-17T09:11:45;26.20;;;6.70;;
73567;SDS011;61847;54.994;73.310;2022-12-17T09:14:39;55.03;;;10.10;;
73567;SDS011;61847;54.994;73.310;2022-12-17T09:17:26;36.80;;;9.33;;
73567;SDS011;61847;54.994;73.310;2022-12-17T09:20:11;17.23;;;4.63;;
73567;SDS011;61847;54.994;73.310;2022-12-17T09:23:06;43.97;;;10.83;;
73567;SDS011;61847;54.994;73.310;2022-12-17T09:25:53;24.13;;;6.93;;
73567;SDS011;61847;54.994;73.310;2022-12-17T09:28:38;39.10;;;10.50;;
73567;SDS011;61847;54.994;73.310;2022-12-17T09:31:33;20.07;;;5.67;;
73567;SDS011;61847;54.994;73.310;2022-12-17T09:34:29;40.00;;;10.03;;
73567;SDS011;61847;54.994;73.310;2022-12-17T09:37:13;44.13;;;11.20;;
73567;SDS011;61847;54.994;73.310;2022-12-17T09:40:14;43.30;;;10.57;;
73567;SDS011;61847;54.994;73.310;2022-12-17T09:43:05;42.30;;;12.87;;
73567;SDS011;61847;54.994;73.310;2022-12-17T09:46:21;37.17;;;9.00;;
73567;SDS011;61847;54.994;73.310;2022-12-17T09:49:37;25.57;;;5.60;;
73567;SDS011;61847;54.994;73.310;2022-12-17T09:52:26;38.37;;;8.70;;
73567;SDS011;61847;54.994;73.310;2022-12-17T09:55:37;37.87;;;9.23;;
73567;SDS011;61847;54.994;73.310;2022-12-17T09:58:29;45.57;;;12.30;;
73567;SDS011;61847;54.994;73.310;2022-12-17T10:01:18;42.93;;;11.70;;
73567;SDS011;61847;54.994;73.310;2022-12-17T10:04:14;61.77;;;13.57;;
73567;SDS011;61847;54.994;73.310;2022-12-17T10:07:01;66.77;;;14.37;;
73567;SDS011;61847;54.994;73.310;2022-12-17T10:09:48;52.30;;;13.53;;
73567;SDS011;61847;54.994;73.310;2022-12-17T10:12:35;40.80;;;12.73;;
73567;SDS011;61847;54.994;73.310;2022-12-17T10:15:20;67.00;;;14.90;;
73567;SDS011;61847;54.994;73.310;2022-12-17T10:18:05;48.17;;;10.93;;
73567;SDS011;61847;54.994;73.310;2022-12-17T10:21:03;38.73;;;9.33;;
73567;SDS011;61847;54.994;73.310;2022-12-17T10:23:49;50.67;;;12.70;;
73567;SDS011;61847;54.994;73.310;2022-12-17T10:26:34;54.73;;;12.30;;
73567;SDS011;61847;54.994;73.310;2022-12-17T10:29:23;67.17;;;15.80;;
73567;SDS011;61847;54.994;73.310;2022-12-17T10:35:11;52.63;;;13.07;;
73567;SDS011;61847;54.994;73.310;2022-12-17T10:47:11;25.97;;;8.00;;
73567;SDS011;61847;54.994;73.310;2022-12-17T10:49:59;27.77;;;7.77;;
73567;SDS011;61847;54.994;73.310;2022-12-17T10:52:46;26.43;;;9.20;;
73567;SDS011;61847;54.994;73.310;2022-12-17T10:55:32;19.40;;;5.83;;
73567;SDS011;61847;54.994;73.310;2022-12-17T10:58:20;30.03;;;9.53;;
73567;SDS011;61847;54.994;73.310;2022-12-17T11:01:09;49.83;;;13.40;;
73567;SDS011;61847;54.994;73.310;2022-12-17T11:07:32;30.37;;;6.27;;
73567;SDS011;61847;54.994;73.310;2022-12-17T11:10:21;30.67;;;8.53;;
73567;SDS011;61847;54.994;73.310;2022-12-17T11:13:28;23.13;;;7.47;;
73567;SDS011;61847;54.994;73.310;2022-12-17T11:16:29;27.10;;;6.27;;
73567;SDS011;61847;54.994;73.310;2022-12-17T11:22:30;17.00;;;6.40;;
73567;SDS011;61847;54.994;73.310;2022-12-17T11:25:41;23.13;;;5.93;;
73567;SDS011;61847;54.994;73.310;2022-12-17T11:28:45;17.23;;;4.03;;
73567;SDS011;61847;54.994;73.310;2022-12-17T11:31:34;42.10;;;6.80;;
73567;SDS011;61847;54.994;73.310;2022-12-17T11:37:57;30.47;;;6.37;;
73567;SDS011;61847;54.994;73.310;2022-12-17T11:40:53;33.30;;;6.60;;
73567;SDS011;61847;54.994;73.310;2022-12-17T11:56:29;17.27;;;4.03;;
73567;SDS011;61847;54.994;73.310;2022-12-17T12:05:27;21.80;;;5.60;;
73567;SDS011;61847;54.994;73.310;2022-12-17T12:08:41;10.30;;;3.00;;
73567;SDS011;61847;54.994;73.310;2022-12-17T12:17:56;10.05;;;3.35;;
73567;SDS011;61847;54.994;73.310;2022-12-17T12:20:51;36.90;;;6.67;;
73567;SDS011;61847;54.994;73.310;2022-12-17T12:27:25;36.57;;;6.97;;
73567;SDS011;61847;54.994;73.310;2022-12-17T12:30:29;17.87;;;5.90;;
73567;SDS011;61847;54.994;73.310;2022-12-17T12:36:34;23.80;;;6.57;;
73567;SDS011;61847;54.994;73.310;2022-12-17T12:39:35;14.87;;;4.57;;
73567;SDS011;61847;54.994;73.310;2022-12-17T12:42:29;18.90;;;5.23;;
73567;SDS011;61847;54.994;73.310;2022-12-17T12:54:21;26.03;;;7.63;;
73567;SDS011;61847;54.994;73.310;2022-12-17T13:03:54;22.30;;;5.27;;
73567;SDS011;61847;54.994;73.310;2022-12-17T13:11:44;26.80;;;6.77;;
73567;SDS011;61847;54.994;73.310;2022-12-17T13:14:22;29.00;;;7.27;;
73567;SDS011;61847;54.994;73.310;2022-12-17T13:17:06;21.23;;;6.78;;
73567;SDS011;61847;54.994;73.310;2022-12-17T13:22:27;29.58;;;6.78;;
73567;SDS011;61847;54.994;73.310;2022-12-17T13:24:55;13.07;;;3.77;;
73567;SDS011;61847;54.994;73.310;2022-12-17T13:33:02;26.30;;;6.53;;
73567;SDS011;61847;54.994;73.310;2022-12-17T13:36:20;31.47;;;5.10;;
73567;SDS011;61847;54.994;73.310;2022-12-17T13:39:18;28.45;;;7.07;;
73567;SDS011;61847;54.994;73.310;2022-12-17T13:42:13;28.47;;;5.33;;
73567;SDS011;61847;54.994;73.310;2022-12-17T13:44:51;27.37;;;6.93;;
73567;SDS011;61847;54.994;73.310;2022-12-17T13:47:25;18.27;;;5.23;;
73567;SDS011;61847;54.994;73.310;2022-12-17T13:49:53;19.47;;;4.53;;
73567;SDS011;61847;54.994;73.310;2022-12-17T13:52:23;23.17;;;5.83;;
73567;SDS011;61847;54.994;73.310;2022-12-17T13:54:53;30.17;;;6.70;;
73567;SDS011;61847;54.994;73.310;2022-12-17T13:57:30;14.03;;;4.43;;
73567;SDS011;61847;54.994;73.310;2022-12-17T13:59:57;35.80;;;6.60;;
73567;SDS011;61847;54.994;73.310;2022-12-17T14:02:30;36.50;;;6.53;;
73567;SDS011;61847;54.994;73.310;2022-12-17T14:04:59;33.90;;;5.67;;
73567;SDS011;61847;54.994;73.310;2022-12-17T14:07:27;26.20;;;6.20;;
73567;SDS011;61847;54.994;73.310;2022-12-17T14:09:55;23.57;;;6.77;;
73567;SDS011;61847;54.994;73.310;2022-12-17T14:12:23;36.57;;;7.93;;
73567;SDS011;61847;54.994;73.310;2022-12-17T14:17:24;10.33;;;4.57;;
73567;SDS011;61847;54.994;73.310;2022-12-17T14:19:57;31.53;;;6.87;;
73567;SDS011;61847;54.994;73.310;2022-12-17T14:22:36;11.63;;;3.70;;
73567;SDS011;61847;54.994;73.310;2022-12-17T14:25:12;29.43;;;6.33;;
73567;SDS011;61847;54.994;73.310;2022-12-17T14:27:47;20.00;;;5.43;;
73567;SDS011;61847;54.994;73.310;2022-12-17T14:30:22;17.70;;;4.57;;
73567;SDS011;61847;54.994;73.310;2022-12-17T14:32:50;29.10;;;6.95;;
73567;SDS011;61847;54.994;73.310;2022-12-17T14:35:26;32.03;;;6.63;;
73567;SDS011;61847;54.994;73.310;2022-12-17T14:38:00;35.13;;;7.17;;
73567;SDS011;61847;54.994;73.310;2022-12-17T14:40:26;21.53;;;5.47;;
73567;SDS011;61847;54.994;73.310;2022-12-17T14:42:58;23.97;;;6.23;;
73567;SDS011;61847;54.994;73.310;2022-12-17T14:45:30;31.37;;;6.93;;
73567;SDS011;61847;54.994;73.310;2022-12-17T14:48:00;23.47;;;5.40;;
73567;SDS011;61847;54.994;73.310;2022-12-17T14:50:32;26.83;;;7.27;;
73567;SDS011;61847;54.994;73.310;2022-12-17T14:53:01;30.63;;;5.93;;
73567;SDS011;61847;54.994;73.310;2022-12-17T14:55:34;17.80;;;4.33;;
73567;SDS011;61847;54.994;73.310;2022-12-17T14:58:17;30.43;;;5.43;;
73567;SDS011;61847;54.994;73.310;2022-12-17T15:03:22;25.50;;;6.73;;
73567;SDS011;61847;54.994;73.310;2022-12-17T15:06:04;17.93;;;5.93;;
73567;SDS011;61847;54.994;73.310;2022-12-17T15:08:33;30.93;;;7.80;;
73567;SDS011;61847;54.994;73.310;2022-12-17T15:11:02;32.33;;;6.10;;
73567;SDS011;61847;54.994;73.310;2022-12-17T15:13:33;16.93;;;5.07;;
73567;SDS011;61847;54.994;73.310;2022-12-17T15:16:04;21.23;;;4.87;;
73567;SDS011;61847;54.994;73.310;2022-12-17T15:18:40;28.60;;;5.97;;
73567;SDS011;61847;54.994;73.310;2022-12-17T15:21:12;29.60;;;6.47;;
73567;SDS011;61847;54.994;73.310;2022-12-17T15:23:40;19.20;;;5.43;;
73567;SDS011;61847;54.994;73.310;2022-12-17T15:26:08;45.53;;;9.50;;
73567;SDS011;61847;54.994;73.310;2022-12-17T15:28:46;39.20;;;8.57;;
73567;SDS011;61847;54.994;73.310;2022-12-17T15:31:12;28.53;;;5.97;;
73567;SDS011;61847;54.994;73.310;2022-12-17T15:33:40;42.50;;;6.53;;
73567;SDS011;61847;54.994;73.310;2022-12-17T15:36:18;21.47;;;5.60;;
73567;SDS011;61847;54.994;73.310;2022-12-17T15:38:45;22.93;;;5.53;;
73567;SDS011;61847;54.994;73.310;2022-12-17T15:41:11;22.40;;;5.67;;
73567;SDS011;61847;54.994;73.310;2022-12-17T15:43:56;27.30;;;7.23;;
73567;SDS011;61847;54.994;73.310;2022-12-17T15:46:34;19.33;;;4.63;;
73567;SDS011;61847;54.994;73.310;2022-12-17T15:49:00;45.97;;;6.63;;
73567;SDS011;61847;54.994;73.310;2022-12-17T15:51:38;31.67;;;6.77;;
73567;SDS011;61847;54.994;73.310;2022-12-17T15:54:09;34.33;;;6.87;;
73567;SDS011;61847;54.994;73.310;2022-12-17T15:56:41;21.50;;;6.23;;
73567;SDS011;61847;54.994;73.310;2022-12-17T15:59:07;40.80;;;5.60;;
73567;SDS011;61847;54.994;73.310;2022-12-17T16:01:38;19.63;;;5.27;;
73567;SDS011;61847;54.994;73.310;2022-12-17T16:04:09;20.80;;;5.17;;
73567;SDS011;61847;54.994;73.310;2022-12-17T16:06:36;16.77;;;4.40;;
73567;SDS011;61847;54.994;73.310;2022-12-17T16:09:02;27.80;;;6.47;;
73567;SDS011;61847;54.994;73.310;2022-12-17T16:11:33;32.37;;;7.30;;
73567;SDS011;61847;54.994;73.310;2022-12-17T16:14:09;31.03;;;7.20;;
73567;SDS011;61847;54.994;73.310;2022-12-17T16:16:36;25.00;;;5.40;;
73567;SDS011;61847;54.994;73.310;2022-12-17T16:19:02;19.03;;;4.57;;
73567;SDS011;61847;54.994;73.310;2022-12-17T16:21:28;25.57;;;5.77;;
73567;SDS011;61847;54.994;73.310;2022-12-17T16:24:04;9.47;;;3.83;;
73567;SDS011;61847;54.994;73.310;2022-12-17T16:26:31;23.60;;;7.07;;
73567;SDS011;61847;54.994;73.310;2022-12-17T16:28:58;22.27;;;5.67;;
73567;SDS011;61847;54.994;73.310;2022-12-17T16:31:29;18.80;;;5.13;;
73567;SDS011;61847;54.994;73.310;2022-12-17T16:33:56;22.93;;;5.43;;
73567;SDS011;61847;54.994;73.310;2022-12-17T16:36:27;19.43;;;5.17;;
73567;SDS011;61847;54.994;73.310;2022-12-17T16:38:53;17.13;;;4.60;;
73567;SDS011;61847;54.994;73.310;2022-12-17T16:41:20;23.33;;;5.30;;
73567;SDS011;61847;54.994;73.310;2022-12-17T16:43:47;21.53;;;5.97;;
73567;SDS011;61847;54.994;73.310;2022-12-17T16:46:33;14.37;;;5.00;;
73567;SDS011;61847;54.994;73.310;2022-12-17T16:49:15;18.60;;;5.10;;
73567;SDS011;61847;54.994;73.310;2022-12-17T16:51:46;23.43;;;5.40;;
73567;SDS011;61847;54.994;73.310;2022-12-17T16:54:15;16.40;;;4.07;;
73567;SDS011;61847;54.994;73.310;2022-12-17T16:56:44;20.97;;;6.07;;
73567;SDS011;61847;54.994;73.310;2022-12-17T16:59:17;13.65;;;4.00;;
73567;SDS011;61847;54.994;73.310;2022-12-17T17:01:45;21.47;;;5.77;;
73567;SDS011;61847;54.994;73.310;2022-12-17T17:04:13;19.17;;;5.97;;
73567;SDS011;61847;54.994;73.310;2022-12-17T17:06:41;16.47;;;5.60;;
73567;SDS011;61847;54.994;73.310;2022-12-17T17:09:10;10.87;;;3.40;;
73567;SDS011;61847;54.994;73.310;2022-12-17T17:11:37;19.63;;;6.07;;
73567;SDS011;61847;54.994;73.310;2022-12-17T17:14:14;17.83;;;5.50;;
73567;SDS011;61847;54.994;73.310;2022-12-17T17:16:41;17.17;;;5.20;;
73567;SDS011;61847;54.994;73.310;2022-12-17T17:19:07;17.13;;;6.23;;
73567;SDS011;61847;54.994;73.310;2022-12-17T17:21:39;23.73;;;6.27;;
73567;SDS011;61847;54.994;73.310;2022-12-17T17:26:40;19.03;;;5.23;;
73567;SDS011;61847;54.994;73.310;2022-12-17T17:29:07;21.93;;;5.00;;
73567;SDS011;61847;54.994;73.310;2022-12-17T17:31:34;15.27;;;4.07;;